Terminal Aerodrome Forecast
Issued by NWS

Home | Current Version | Previous Version | Text Only | Print | Product List | Glossary On
Versions: 1 2 3 4 5 6 7 8 9 10 11 12 13 14 15 16 17 18 19 20 21 22 23 24 25
000
FTUS41 KPBZ 200100 AAA
TAFZZV
TAF AMD
KZZV 200108Z 2001/2024 00000KT P6SM OVC019
     FM200800 VRB03KT 5SM BR OVC015
     FM201400 VRB03KT P6SM OVC025=

USA.gov is the U.S. government's official web portal to all federal, state and local government web resources and services.